sensor_id;sensor_type;location;lat;lon;timestamp;pressure;altitude;pressure_sealevel;temperature;humidity
50484;BME280;36409;52.168;20.878;2024-03-25T00:01:39;99037.95;;;3.12;71.31
50484;BME280;36409;52.168;20.878;2024-03-25T00:04:10;99030.20;;;3.11;70.87
50484;BME280;36409;52.168;20.878;2024-03-25T00:06:42;99032.80;;;3.09;71.64
50484;BME280;36409;52.168;20.878;2024-03-25T00:09:13;99037.97;;;3.06;71.00
50484;BME280;36409;52.168;20.878;2024-03-25T00:11:45;99031.98;;;3.02;71.05
50484;BME280;36409;52.168;20.878;2024-03-25T00:14:16;99028.56;;;2.99;70.77
50484;BME280;36409;52.168;20.878;2024-03-25T00:16:47;99027.72;;;2.95;71.47
50484;BME280;36409;52.168;20.878;2024-03-25T00:19:19;99030.30;;;2.92;71.51
50484;BME280;36409;52.168;20.878;2024-03-25T00:21:51;99026.02;;;2.88;71.48
50484;BME280;36409;52.168;20.878;2024-03-25T00:24:23;99027.77;;;2.86;71.57
50484;BME280;36409;52.168;20.878;2024-03-25T00:26:57;99023.48;;;2.82;71.15
50484;BME280;36409;52.168;20.878;2024-03-25T00:29:28;99031.23;;;2.80;71.52
50484;BME280;36409;52.168;20.878;2024-03-25T00:32:00;99025.20;;;2.76;71.45
50484;BME280;36409;52.168;20.878;2024-03-25T00:34:31;99027.80;;;2.75;71.13
50484;BME280;36409;52.168;20.878;2024-03-25T00:37:06;99032.95;;;2.75;70.94
50484;BME280;36409;52.168;20.878;2024-03-25T00:39:39;99022.66;;;2.73;70.89
50484;BME280;36409;52.168;20.878;2024-03-25T00:42:11;99025.23;;;2.73;71.06
50484;BME280;36409;52.168;20.878;2024-03-25T00:44:43;99013.21;;;2.72;71.51
50484;BME280;36409;52.168;20.878;2024-03-25T00:47:15;99019.20;;;2.73;71.79
50484;BME280;36409;52.168;20.878;2024-03-25T00:49:46;99019.20;;;2.73;71.08
50484;BME280;36409;52.168;20.878;2024-03-25T00:52:17;99009.77;;;2.73;71.13
50484;BME280;36409;52.168;20.878;2024-03-25T00:54:50;99013.20;;;2.75;71.26
50484;BME280;36409;52.168;20.878;2024-03-25T00:57:26;99008.05;;;2.75;72.01
50484;BME280;36409;52.168;20.878;2024-03-25T01:00:00;99004.60;;;2.75;71.36
50484;BME280;36409;52.168;20.878;2024-03-25T01:02:34;99001.16;;;2.76;72.20
50484;BME280;36409;52.168;20.878;2024-03-25T01:05:09;99007.16;;;2.76;72.07
50484;BME280;36409;52.168;20.878;2024-03-25T01:07:41;98998.59;;;2.76;71.43
50484;BME280;36409;52.168;20.878;2024-03-25T01:10:14;98994.30;;;2.75;71.25
50484;BME280;36409;52.168;20.878;2024-03-25T01:12:46;98995.16;;;2.74;71.88
50484;BME280;36409;52.168;20.878;2024-03-25T01:15:17;98998.59;;;2.73;71.61
50484;BME280;36409;52.168;20.878;2024-03-25T01:17:49;98994.30;;;2.72;71.87
50484;BME280;36409;52.168;20.878;2024-03-25T01:20:20;98988.30;;;2.71;72.34
50484;BME280;36409;52.168;20.878;2024-03-25T01:22:51;98990.90;;;2.70;71.63
50484;BME280;36409;52.168;20.878;2024-03-25T01:25:24;98989.17;;;2.67;71.88
50484;BME280;36409;52.168;20.878;2024-03-25T01:28:01;98990.89;;;2.65;71.40
50484;BME280;36409;52.168;20.878;2024-03-25T01:30:35;98994.36;;;2.64;72.15
50484;BME280;36409;52.168;20.878;2024-03-25T01:33:08;98993.46;;;2.65;71.45
50484;BME280;36409;52.168;20.878;2024-03-25T01:35:41;98990.89;;;2.65;71.98
50484;BME280;36409;52.168;20.878;2024-03-25T01:38:14;98998.62;;;2.65;71.48
50484;BME280;36409;52.168;20.878;2024-03-25T01:40:48;98995.20;;;2.65;72.05
50484;BME280;36409;52.168;20.878;2024-03-25T01:43:19;98995.22;;;2.63;72.14
50484;BME280;36409;52.168;20.878;2024-03-25T01:45:52;99000.35;;;2.61;71.47
50484;BME280;36409;52.168;20.878;2024-03-25T01:48:25;98993.48;;;2.60;72.18
50484;BME280;36409;52.168;20.878;2024-03-25T01:50:58;98984.93;;;2.58;71.54
50484;BME280;36409;52.168;20.878;2024-03-25T01:53:31;98990.92;;;2.56;71.69
50484;BME280;36409;52.168;20.878;2024-03-25T01:56:04;98987.51;;;2.55;72.25
50484;BME280;36409;52.168;20.878;2024-03-25T01:58:36;98989.25;;;2.52;72.48
50484;BME280;36409;52.168;20.878;2024-03-25T02:01:08;98985.80;;;2.51;71.54
50484;BME280;36409;52.168;20.878;2024-03-25T02:03:44;98984.11;;;2.47;72.00
50484;BME280;36409;52.168;20.878;2024-03-25T02:06:18;98980.67;;;2.45;72.56
50484;BME280;36409;52.168;20.878;2024-03-25T02:08:50;98973.81;;;2.41;72.50
50484;BME280;36409;52.168;20.878;2024-03-25T02:11:23;98970.38;;;2.39;72.60
50484;BME280;36409;52.168;20.878;2024-03-25T02:13:55;98972.11;;;2.35;72.31
50484;BME280;36409;52.168;20.878;2024-03-25T02:16:27;98969.55;;;2.30;72.16
50484;BME280;36409;52.168;20.878;2024-03-25T02:18:58;98971.28;;;2.27;71.67
50484;BME280;36409;52.168;20.878;2024-03-25T02:21:30;98973.02;;;2.23;72.42
50484;BME280;36409;52.168;20.878;2024-03-25T02:24:08;98974.72;;;2.20;71.84
50484;BME280;36409;52.168;20.878;2024-03-25T02:26:40;98980.73;;;2.17;72.09
50484;BME280;36409;52.168;20.878;2024-03-25T02:29:12;98975.59;;;2.14;72.04
50484;BME280;36409;52.168;20.878;2024-03-25T02:31:44;98984.20;;;2.10;72.56
50484;BME280;36409;52.168;20.878;2024-03-25T02:34:16;98979.05;;;2.07;71.94
50484;BME280;36409;52.168;20.878;2024-03-25T02:36:47;98986.78;;;2.05;72.63
50484;BME280;36409;52.168;20.878;2024-03-25T02:39:19;98985.05;;;2.06;72.68
50484;BME280;36409;52.168;20.878;2024-03-25T02:41:51;98986.78;;;2.05;72.73
50484;BME280;36409;52.168;20.878;2024-03-25T02:44:22;98991.07;;;2.06;71.84
50484;BME280;36409;52.168;20.878;2024-03-25T02:46:58;98984.20;;;2.05;71.75
50484;BME280;36409;52.168;20.878;2024-03-25T02:49:32;98976.47;;;2.04;71.98
50484;BME280;36409;52.168;20.878;2024-03-25T02:52:04;98974.77;;;2.01;72.82
50484;BME280;36409;52.168;20.878;2024-03-25T02:54:36;98984.22;;;2.00;72.25
50484;BME280;36409;52.168;20.878;2024-03-25T02:57:08;98989.36;;;2.00;71.95
50484;BME280;36409;52.168;20.878;2024-03-25T02:59:39;98989.36;;;2.00;72.87
50484;BME280;36409;52.168;20.878;2024-03-25T03:02:11;98995.37;;;2.03;72.31
50484;BME280;36409;52.168;20.878;2024-03-25T03:04:42;98997.95;;;2.03;72.38
50484;BME280;36409;52.168;20.878;2024-03-25T03:07:13;98997.08;;;2.02;72.16
50484;BME280;36409;52.168;20.878;2024-03-25T03:09:46;99000.52;;;2.03;72.15
50484;BME280;36409;52.168;20.878;2024-03-25T03:12:17;98997.08;;;2.02;72.06
50484;BME280;36409;52.168;20.878;2024-03-25T03:14:49;99000.50;;;2.01;72.89
50484;BME280;36409;52.168;20.878;2024-03-25T03:17:20;99001.38;;;2.02;72.62
50484;BME280;36409;52.168;20.878;2024-03-25T03:19:53;99004.80;;;2.00;72.33
50484;BME280;36409;52.168;20.878;2024-03-25T03:22:25;99001.38;;;1.98;72.78
50484;BME280;36409;52.168;20.878;2024-03-25T03:24:57;99010.80;;;1.98;72.36
50484;BME280;36409;52.168;20.878;2024-03-25T03:27:30;99008.22;;;1.98;72.31
50484;BME280;36409;52.168;20.878;2024-03-25T03:30:02;99011.68;;;1.97;72.38
50484;BME280;36409;52.168;20.878;2024-03-25T03:32:34;99009.11;;;1.97;72.33
50484;BME280;36409;52.168;20.878;2024-03-25T03:35:07;99017.67;;;1.97;73.20
50484;BME280;36409;52.168;20.878;2024-03-25T03:37:39;99015.95;;;1.96;73.01
50484;BME280;36409;52.168;20.878;2024-03-25T03:40:11;99014.26;;;1.97;73.05
50484;BME280;36409;52.168;20.878;2024-03-25T03:42:45;99013.37;;;1.98;72.60
50484;BME280;36409;52.168;20.878;2024-03-25T03:45:17;99014.24;;;1.98;73.12
50484;BME280;36409;52.168;20.878;2024-03-25T03:47:49;99018.52;;;1.98;73.32
50484;BME280;36409;52.168;20.878;2024-03-25T03:50:21;99027.11;;;1.98;73.31
50484;BME280;36409;52.168;20.878;2024-03-25T03:52:52;99028.81;;;1.98;73.56
50484;BME280;36409;52.168;20.878;2024-03-25T03:55:27;99032.26;;;1.98;72.97
50484;BME280;36409;52.168;20.878;2024-03-25T03:58:01;99028.81;;;1.98;72.92
50484;BME280;36409;52.168;20.878;2024-03-25T04:00:34;99033.12;;;1.97;72.97
50484;BME280;36409;52.168;20.878;2024-03-25T04:03:06;99030.55;;;1.96;73.63
50484;BME280;36409;52.168;20.878;2024-03-25T04:05:39;99029.67;;;1.95;73.41
50484;BME280;36409;52.168;20.878;2024-03-25T04:08:10;99027.96;;;1.94;73.23
50484;BME280;36409;52.168;20.878;2024-03-25T04:10:42;99032.25;;;1.95;73.59
50484;BME280;36409;52.168;20.878;2024-03-25T04:13:14;99033.98;;;1.95;73.50
50484;BME280;36409;52.168;20.878;2024-03-25T04:15:47;99030.53;;;1.94;72.80
50484;BME280;36409;52.168;20.878;2024-03-25T04:18:21;99033.11;;;1.94;73.21
50484;BME280;36409;52.168;20.878;2024-03-25T04:20:52;99030.55;;;1.93;73.72
50484;BME280;36409;52.168;20.878;2024-03-25T04:23:23;99029.67;;;1.92;72.90
50484;BME280;36409;52.168;20.878;2024-03-25T04:25:55;99030.56;;;1.91;73.49
50484;BME280;36409;52.168;20.878;2024-03-25T04:28:26;99036.55;;;1.92;73.94
50484;BME280;36409;52.168;20.878;2024-03-25T04:31:03;99035.70;;;1.91;73.36
50484;BME280;36409;52.168;20.878;2024-03-25T04:33:35;99033.98;;;1.90;73.34
50484;BME280;36409;52.168;20.878;2024-03-25T04:36:07;99034.84;;;1.89;73.77
50484;BME280;36409;52.168;20.878;2024-03-25T04:38:38;99033.11;;;1.90;73.50
50484;BME280;36409;52.168;20.878;2024-03-25T04:41:09;99035.69;;;1.90;73.84
50484;BME280;36409;52.168;20.878;2024-03-25T04:43:39;99036.56;;;1.90;74.08
50484;BME280;36409;52.168;20.878;2024-03-25T04:46:27;99036.56;;;1.90;74.09
50484;BME280;36409;52.168;20.878;2024-03-25T04:49:10;99032.26;;;1.91;73.69
50484;BME280;36409;52.168;20.878;2024-03-25T04:51:40;99044.27;;;1.92;73.28
50484;BME280;36409;52.168;20.878;2024-03-25T04:54:11;99051.13;;;1.94;73.23
50484;BME280;36409;52.168;20.878;2024-03-25T04:56:45;99046.85;;;1.95;73.55
50484;BME280;36409;52.168;20.878;2024-03-25T04:59:15;99040.83;;;1.94;73.79
50484;BME280;36409;52.168;20.878;2024-03-25T05:01:46;99040.84;;;1.96;73.25
50484;BME280;36409;52.168;20.878;2024-03-25T05:04:16;99045.12;;;1.98;74.11
50484;BME280;36409;52.168;20.878;2024-03-25T05:06:46;99046.84;;;2.01;73.75
50484;BME280;36409;52.168;20.878;2024-03-25T05:09:19;99045.11;;;2.05;73.69
50484;BME280;36409;52.168;20.878;2024-03-25T05:11:51;99053.69;;;2.11;73.94
50484;BME280;36409;52.168;20.878;2024-03-25T05:14:24;99046.81;;;2.15;73.69
50484;BME280;36409;52.168;20.878;2024-03-25T05:16:55;99056.27;;;2.22;74.29
50484;BME280;36409;52.168;20.878;2024-03-25T05:19:27;99051.11;;;2.30;73.74
50484;BME280;36409;52.168;20.878;2024-03-25T05:22:06;99050.20;;;2.43;74.00
50484;BME280;36409;52.168;20.878;2024-03-25T05:24:36;99050.19;;;2.59;74.30
50484;BME280;36409;52.168;20.878;2024-03-25T05:27:07;99052.70;;;2.79;74.37
50484;BME280;36409;52.168;20.878;2024-03-25T05:29:38;99048.33;;;2.97;73.46
50484;BME280;36409;52.168;20.878;2024-03-25T05:32:11;99051.70;;;3.14;73.63
50484;BME280;36409;52.168;20.878;2024-03-25T05:34:42;99049.05;;;3.28;74.34
50484;BME280;36409;52.168;20.878;2024-03-25T05:37:12;99054.09;;;3.44;73.96
50484;BME280;36409;52.168;20.878;2024-03-25T05:39:43;99053.17;;;3.55;73.60
50484;BME280;36409;52.168;20.878;2024-03-25T05:42:15;99056.52;;;3.68;73.82
50484;BME280;36409;52.168;20.878;2024-03-25T05:44:47;99062.46;;;3.80;73.60
50484;BME280;36409;52.168;20.878;2024-03-25T05:47:18;99060.67;;;3.90;73.83
50484;BME280;36409;52.168;20.878;2024-03-25T05:49:49;99058.00;;;4.02;73.71
50484;BME280;36409;52.168;20.878;2024-03-25T05:52:20;99057.84;;;4.17;73.72
50484;BME280;36409;52.168;20.878;2024-03-25T05:54:54;99062.91;;;4.30;74.03
50484;BME280;36409;52.168;20.878;2024-03-25T05:57:24;99062.81;;;4.39;73.43
50484;BME280;36409;52.168;20.878;2024-03-25T05:59:56;99066.23;;;4.41;73.74
50484;BME280;36409;52.168;20.878;2024-03-25T06:02:26;99068.83;;;4.43;74.16
50484;BME280;36409;52.168;20.878;2024-03-25T06:04:57;99069.65;;;4.46;74.02
50484;BME280;36409;52.168;20.878;2024-03-25T06:07:28;99070.50;;;4.48;73.81
50484;BME280;36409;52.168;20.878;2024-03-25T06:09:59;99070.49;;;4.47;73.70
50484;BME280;36409;52.168;20.878;2024-03-25T06:12:31;99067.91;;;4.48;73.89
50484;BME280;36409;52.168;20.878;2024-03-25T06:15:02;99068.70;;;4.54;73.70
50484;BME280;36409;52.168;20.878;2024-03-25T06:17:33;99071.24;;;4.60;73.79
50484;BME280;36409;52.168;20.878;2024-03-25T06:20:06;99076.34;;;4.66;73.59
50484;BME280;36409;52.168;20.878;2024-03-25T06:22:39;99072.80;;;4.73;73.18
50484;BME280;36409;52.168;20.878;2024-03-25T06:25:10;99079.61;;;4.82;73.51
50484;BME280;36409;52.168;20.878;2024-03-25T06:27:41;99076.91;;;4.91;72.86
50484;BME280;36409;52.168;20.878;2024-03-25T06:30:13;99080.31;;;4.97;73.01
50484;BME280;36409;52.168;20.878;2024-03-25T06:33:02;99075.86;;;5.08;73.21
50484;BME280;36409;52.168;20.878;2024-03-25T06:35:52;99081.70;;;5.24;72.53
50484;BME280;36409;52.168;20.878;2024-03-25T06:38:24;99091.02;;;5.37;72.88
50484;BME280;36409;52.168;20.878;2024-03-25T06:40:55;99090.05;;;5.45;72.35
50484;BME280;36409;52.168;20.878;2024-03-25T06:43:25;99088.06;;;5.64;72.44
50484;BME280;36409;52.168;20.878;2024-03-25T06:45:56;99085.73;;;7.02;71.28
50484;BME280;36409;52.168;20.878;2024-03-25T06:48:27;99086.48;;;7.49;70.76
50484;BME280;36409;52.168;20.878;2024-03-25T06:50:59;99085.34;;;9.01;70.28
50484;BME280;36409;52.168;20.878;2024-03-25T06:53:37;99080.17;;;10.15;70.59
50484;BME280;36409;52.168;20.878;2024-03-25T06:56:08;99080.26;;;10.40;69.02
50484;BME280;36409;52.168;20.878;2024-03-25T06:58:38;99078.43;;;11.17;68.29
50484;BME280;36409;52.168;20.878;2024-03-25T07:01:11;99071.45;;;11.63;68.88
50484;BME280;36409;52.168;20.878;2024-03-25T07:03:42;99080.86;;;11.45;69.08
50484;BME280;36409;52.168;20.878;2024-03-25T07:06:12;99073.98;;;12.31;67.72
50484;BME280;36409;52.168;20.878;2024-03-25T07:08:48;99081.06;;;12.07;68.53
50484;BME280;36409;52.168;20.878;2024-03-25T07:11:18;99083.66;;;12.29;67.56
50484;BME280;36409;52.168;20.878;2024-03-25T07:13:53;99087.31;;;12.46;67.50
50484;BME280;36409;52.168;20.878;2024-03-25T07:16:23;99085.42;;;11.84;68.04
50484;BME280;36409;52.168;20.878;2024-03-25T07:18:53;99091.23;;;11.47;68.17
50484;BME280;36409;52.168;20.878;2024-03-25T07:21:24;99095.73;;;11.19;67.50
50484;BME280;36409;52.168;20.878;2024-03-25T07:23:54;99093.72;;;10.78;68.24
50484;BME280;36409;52.168;20.878;2024-03-25T07:26:25;99094.72;;;10.49;68.31
50484;BME280;36409;52.168;20.878;2024-03-25T07:28:56;99092.49;;;10.36;68.76
50484;BME280;36409;52.168;20.878;2024-03-25T07:31:26;99091.16;;;10.25;68.29
50484;BME280;36409;52.168;20.878;2024-03-25T07:34:00;99098.83;;;10.29;68.56
50484;BME280;36409;52.168;20.878;2024-03-25T07:36:31;99097.22;;;10.25;67.33
50484;BME280;36409;52.168;20.878;2024-03-25T07:39:02;99106.16;;;10.18;68.21
50484;BME280;36409;52.168;20.878;2024-03-25T07:41:34;99112.23;;;10.18;67.54
50484;BME280;36409;52.168;20.878;2024-03-25T07:44:05;99101.28;;;10.86;67.20
50484;BME280;36409;52.168;20.878;2024-03-25T07:46:42;99108.91;;;11.40;65.94
50484;BME280;36409;52.168;20.878;2024-03-25T07:49:13;99103.41;;;12.36;65.97
50484;BME280;36409;52.168;20.878;2024-03-25T07:51:44;99106.55;;;12.45;65.72
50484;BME280;36409;52.168;20.878;2024-03-25T07:54:14;99104.88;;;12.44;66.11
50484;BME280;36409;52.168;20.878;2024-03-25T07:56:45;99108.80;;;12.11;65.86
50484;BME280;36409;52.168;20.878;2024-03-25T07:59:15;99110.55;;;12.11;66.17
50484;BME280;36409;52.168;20.878;2024-03-25T08:01:46;99099.92;;;12.98;64.28
50484;BME280;36409;52.168;20.878;2024-03-25T08:04:16;99096.52;;;13.74;64.87
50484;BME280;36409;52.168;20.878;2024-03-25T08:06:46;99095.80;;;13.89;64.25
50484;BME280;36409;52.168;20.878;2024-03-25T08:09:17;99098.90;;;14.15;64.10
50484;BME280;36409;52.168;20.878;2024-03-25T08:11:48;99100.77;;;14.48;62.56
50484;BME280;36409;52.168;20.878;2024-03-25T08:14:19;99098.55;;;14.41;62.34
50484;BME280;36409;52.168;20.878;2024-03-25T08:16:49;99101.15;;;14.23;63.01
50484;BME280;36409;52.168;20.878;2024-03-25T08:19:20;99105.66;;;14.02;62.36
50484;BME280;36409;52.168;20.878;2024-03-25T08:21:50;99105.89;;;13.97;62.12
50484;BME280;36409;52.168;20.878;2024-03-25T08:24:20;99104.72;;;13.85;62.10
50484;BME280;36409;52.168;20.878;2024-03-25T08:26:51;99103.32;;;13.78;61.42
50484;BME280;36409;52.168;20.878;2024-03-25T08:29:21;99104.16;;;13.79;61.72
50484;BME280;36409;52.168;20.878;2024-03-25T08:31:51;99111.94;;;13.80;61.29
50484;BME280;36409;52.168;20.878;2024-03-25T08:34:22;99100.59;;;13.99;61.13
50484;BME280;36409;52.168;20.878;2024-03-25T08:36:52;99100.86;;;14.47;60.95
50484;BME280;36409;52.168;20.878;2024-03-25T08:39:23;99098.95;;;14.68;60.30
50484;BME280;36409;52.168;20.878;2024-03-25T08:41:54;99106.41;;;14.76;61.34
50484;BME280;36409;52.168;20.878;2024-03-25T08:44:24;99100.95;;;14.80;60.78
50484;BME280;36409;52.168;20.878;2024-03-25T08:46:55;99103.34;;;14.67;60.85
50484;BME280;36409;52.168;20.878;2024-03-25T08:49:25;99100.47;;;14.55;60.23
50484;BME280;36409;52.168;20.878;2024-03-25T08:51:55;99101.40;;;14.54;59.39
50484;BME280;36409;52.168;20.878;2024-03-25T08:54:26;99104.21;;;14.68;59.55
50484;BME280;36409;52.168;20.878;2024-03-25T08:56:58;99100.63;;;14.87;59.02
50484;BME280;36409;52.168;20.878;2024-03-25T08:59:28;99108.27;;;15.25;58.44
50484;BME280;36409;52.168;20.878;2024-03-25T09:01:59;99110.30;;;15.36;57.88
50484;BME280;36409;52.168;20.878;2024-03-25T09:04:31;99112.02;;;15.69;58.26
50484;BME280;36409;52.168;20.878;2024-03-25T09:07:01;99113.13;;;16.13;57.18
50484;BME280;36409;52.168;20.878;2024-03-25T09:09:32;99109.63;;;16.73;56.63
50484;BME280;36409;52.168;20.878;2024-03-25T09:12:30;99109.13;;;16.97;56.52
50484;BME280;36409;52.168;20.878;2024-03-25T09:15:00;99119.00;;;17.08;55.77
50484;BME280;36409;52.168;20.878;2024-03-25T09:17:34;99106.81;;;17.63;56.14
50484;BME280;36409;52.168;20.878;2024-03-25T09:20:06;99111.30;;;18.17;56.40
50484;BME280;36409;52.168;20.878;2024-03-25T09:22:37;99118.11;;;18.34;55.84
50484;BME280;36409;52.168;20.878;2024-03-25T09:25:08;99115.72;;;18.17;55.66
50484;BME280;36409;52.168;20.878;2024-03-25T09:27:38;99112.59;;;17.97;55.73
50484;BME280;36409;52.168;20.878;2024-03-25T09:30:13;99116.94;;;17.84;55.96
50484;BME280;36409;52.168;20.878;2024-03-25T09:32:43;99115.50;;;17.51;55.68
50484;BME280;36409;52.168;20.878;2024-03-25T09:35:14;99121.37;;;16.98;55.44
50484;BME280;36409;52.168;20.878;2024-03-25T09:37:44;99121.55;;;16.95;55.72
50484;BME280;36409;52.168;20.878;2024-03-25T09:40:16;99123.01;;;16.85;55.07
50484;BME280;36409;52.168;20.878;2024-03-25T09:42:52;99124.52;;;16.44;55.46
50484;BME280;36409;52.168;20.878;2024-03-25T09:45:27;99124.13;;;16.35;55.34
50484;BME280;36409;52.168;20.878;2024-03-25T09:47:58;99126.48;;;16.40;55.64
50484;BME280;36409;52.168;20.878;2024-03-25T09:50:31;99126.92;;;16.63;55.55
50484;BME280;36409;52.168;20.878;2024-03-25T09:53:02;99117.33;;;16.62;55.46
50484;BME280;36409;52.168;20.878;2024-03-25T09:55:32;99124.06;;;16.21;55.18
50484;BME280;36409;52.168;20.878;2024-03-25T09:58:04;99123.22;;;15.72;55.18
50484;BME280;36409;52.168;20.878;2024-03-25T10:00:41;99127.95;;;15.50;55.69
50484;BME280;36409;52.168;20.878;2024-03-25T10:03:12;99126.85;;;15.38;55.38
50484;BME280;36409;52.168;20.878;2024-03-25T10:05:44;99123.05;;;15.10;54.85
50484;BME280;36409;52.168;20.878;2024-03-25T10:08:19;99131.02;;;14.75;54.54
50484;BME280;36409;52.168;20.878;2024-03-25T10:10:50;99125.64;;;14.41;54.74
50484;BME280;36409;52.168;20.878;2024-03-25T10:13:21;99133.23;;;14.11;54.90
50484;BME280;36409;52.168;20.878;2024-03-25T10:15:52;99130.02;;;13.86;54.23
50484;BME280;36409;52.168;20.878;2024-03-25T10:18:23;99134.22;;;13.71;54.53
50484;BME280;36409;52.168;20.878;2024-03-25T10:20:54;99137.81;;;13.69;54.87
50484;BME280;36409;52.168;20.878;2024-03-25T10:23:25;99132.78;;;13.83;55.20
50484;BME280;36409;52.168;20.878;2024-03-25T10:25:57;99128.68;;;14.14;55.07
50484;BME280;36409;52.168;20.878;2024-03-25T10:28:27;99128.62;;;14.16;55.27
50484;BME280;36409;52.168;20.878;2024-03-25T10:31:04;99133.69;;;14.01;54.82
50484;BME280;36409;52.168;20.878;2024-03-25T10:33:34;99136.97;;;13.87;55.16
50484;BME280;36409;52.168;20.878;2024-03-25T10:36:06;99142.44;;;13.64;54.43
50484;BME280;36409;52.168;20.878;2024-03-25T10:38:38;99140.98;;;13.37;54.69
50484;BME280;36409;52.168;20.878;2024-03-25T10:41:09;99139.54;;;13.11;54.21
50484;BME280;36409;52.168;20.878;2024-03-25T10:43:41;99144.19;;;12.83;54.58
50484;BME280;36409;52.168;20.878;2024-03-25T10:46:19;99140.20;;;12.54;54.72
50484;BME280;36409;52.168;20.878;2024-03-25T10:48:57;99142.92;;;12.30;54.75
50484;BME280;36409;52.168;20.878;2024-03-25T10:51:33;99138.30;;;12.15;54.89
50484;BME280;36409;52.168;20.878;2024-03-25T10:54:05;99136.70;;;12.11;55.21
50484;BME280;36409;52.168;20.878;2024-03-25T10:56:38;99144.73;;;12.06;55.14
50484;BME280;36409;52.168;20.878;2024-03-25T10:59:09;99141.36;;;12.04;54.59
50484;BME280;36409;52.168;20.878;2024-03-25T11:01:42;99138.41;;;12.12;54.83
50484;BME280;36409;52.168;20.878;2024-03-25T11:04:17;99138.91;;;12.22;55.02
50484;BME280;36409;52.168;20.878;2024-03-25T11:06:48;99140.95;;;12.35;55.13
50484;BME280;36409;52.168;20.878;2024-03-25T11:09:25;99139.92;;;12.40;55.07
50484;BME280;36409;52.168;20.878;2024-03-25T11:11:56;99143.56;;;12.35;54.64
50484;BME280;36409;52.168;20.878;2024-03-25T11:14:30;99139.44;;;12.30;54.45
50484;BME280;36409;52.168;20.878;2024-03-25T11:17:01;99135.91;;;12.31;54.37
50484;BME280;36409;52.168;20.878;2024-03-25T11:19:32;99137.38;;;12.38;55.13
50484;BME280;36409;52.168;20.878;2024-03-25T11:22:09;99134.78;;;12.59;54.80
50484;BME280;36409;52.168;20.878;2024-03-25T11:24:44;99137.50;;;12.97;54.62
50484;BME280;36409;52.168;20.878;2024-03-25T11:27:14;99134.95;;;13.35;54.78
50484;BME280;36409;52.168;20.878;2024-03-25T11:29:51;99133.84;;;13.79;55.75
50484;BME280;36409;52.168;20.878;2024-03-25T11:32:22;99135.72;;;14.14;55.06
50484;BME280;36409;52.168;20.878;2024-03-25T11:34:52;99129.01;;;14.26;54.54
50484;BME280;36409;52.168;20.878;2024-03-25T11:37:23;99129.73;;;14.29;54.85
50484;BME280;36409;52.168;20.878;2024-03-25T11:40:03;99122.86;;;14.62;54.52
50484;BME280;36409;52.168;20.878;2024-03-25T11:42:34;99121.53;;;14.53;53.69
50484;BME280;36409;52.168;20.878;2024-03-25T11:45:06;99132.73;;;14.39;53.77
50484;BME280;36409;52.168;20.878;2024-03-25T11:47:38;99123.66;;;14.10;53.21
50484;BME280;36409;52.168;20.878;2024-03-25T11:50:14;99128.10;;;13.90;53.36
50484;BME280;36409;52.168;20.878;2024-03-25T11:52:45;99127.14;;;13.73;53.63
50484;BME280;36409;52.168;20.878;2024-03-25T11:55:22;99130.39;;;13.59;53.12
50484;BME280;36409;52.168;20.878;2024-03-25T11:57:58;99125.92;;;13.42;52.93
50484;BME280;36409;52.168;20.878;2024-03-25T12:00:28;99133.55;;;13.28;53.39
50484;BME280;36409;52.168;20.878;2024-03-25T12:02:59;99130.84;;;13.29;53.04
50484;BME280;36409;52.168;20.878;2024-03-25T12:05:30;99125.31;;;13.17;53.70
50484;BME280;36409;52.168;20.878;2024-03-25T12:08:01;99126.23;;;12.95;53.13
50484;BME280;36409;52.168;20.878;2024-03-25T12:10:32;99127.13;;;12.75;53.79
50484;BME280;36409;52.168;20.878;2024-03-25T12:13:21;99131.30;;;12.58;53.22
50484;BME280;36409;52.168;20.878;2024-03-25T12:15:53;99127.55;;;12.43;52.97
50484;BME280;36409;52.168;20.878;2024-03-25T12:18:23;99134.16;;;12.31;53.71
50484;BME280;36409;52.168;20.878;2024-03-25T12:20:53;99136.97;;;12.27;53.28
50484;BME280;36409;52.168;20.878;2024-03-25T12:23:31;99135.38;;;12.23;54.06
50484;BME280;36409;52.168;20.878;2024-03-25T12:26:03;99133.18;;;12.12;53.80
50484;BME280;36409;52.168;20.878;2024-03-25T12:28:35;99137.50;;;12.13;53.96
50484;BME280;36409;52.168;20.878;2024-03-25T12:31:09;99147.36;;;12.06;53.98
50484;BME280;36409;52.168;20.878;2024-03-25T12:33:43;99143.30;;;11.99;53.86
50484;BME280;36409;52.168;20.878;2024-03-25T12:36:14;99147.33;;;11.84;54.23
50484;BME280;36409;52.168;20.878;2024-03-25T12:38:44;99148.74;;;11.93;54.86
50484;BME280;36409;52.168;20.878;2024-03-25T12:41:24;99147.97;;;12.13;54.74
50484;BME280;36409;52.168;20.878;2024-03-25T12:43:56;99141.82;;;12.36;54.50
50484;BME280;36409;52.168;20.878;2024-03-25T12:46:26;99145.25;;;12.59;55.04
50484;BME280;36409;52.168;20.878;2024-03-25T12:48:57;99148.86;;;12.77;54.49
50484;BME280;36409;52.168;20.878;2024-03-25T12:51:36;99152.91;;;12.84;54.82
50484;BME280;36409;52.168;20.878;2024-03-25T12:54:06;99152.83;;;12.86;54.31
50484;BME280;36409;52.168;20.878;2024-03-25T12:56:39;99149.42;;;12.83;54.68
50484;BME280;36409;52.168;20.878;2024-03-25T12:59:09;99157.27;;;12.83;54.77
50484;BME280;36409;52.168;20.878;2024-03-25T13:01:41;99152.11;;;12.82;54.37
50484;BME280;36409;52.168;20.878;2024-03-25T13:04:13;99150.36;;;12.82;54.71
50484;BME280;36409;52.168;20.878;2024-03-25T13:06:44;99153.89;;;12.81;54.24
50484;BME280;36409;52.168;20.878;2024-03-25T13:09:14;99153.89;;;12.81;54.29
50484;BME280;36409;52.168;20.878;2024-03-25T13:11:45;99154.86;;;12.79;54.30
50484;BME280;36409;52.168;20.878;2024-03-25T13:14:16;99151.20;;;12.83;55.12
50484;BME280;36409;52.168;20.878;2024-03-25T13:16:47;99159.13;;;12.81;55.10
50484;BME280;36409;52.168;20.878;2024-03-25T13:19:17;99171.66;;;12.53;54.43
50484;BME280;36409;52.168;20.878;2024-03-25T13:21:48;99170.37;;;12.20;54.69